Time;durP1;ratioP1;P1;durP2;ratioP2;P2;SDS_P1;SDS_P2;PMS_P1;PMS_P2;Temp;Humidity;BMP_temperature;BMP_pressure;BME280_temperature;BME280_humidity;BME280_pressure;Samples;Min_cycle;Max_cycle;Signal;HPM_P1;HPM_P2
2023/04/09 00:02:16;;;;;;;66.53;59.47;;;;;;;11.26;73.96;102415.75;5131979;28;20071;-58
2023/04/09 00:04:41;;;;;;;64.57;57.78;;;;;;;11.13;74.13;102417.22;5132742;28;20034;-58
2023/04/09 00:07:07;;;;;;;61.55;55.05;;;;;;;11.18;74.08;102423.22;5130541;28;20408;-58
2023/04/09 00:09:32;;;;;;;64.60;57.67;;;;;;;11.16;74.56;102409.09;5132600;28;20031;-58
2023/04/09 00:11:58;;;;;;;62.00;55.53;;;;;;;11.00;75.09;102403.53;5113102;28;20020;-58
2023/04/09 00:14:23;;;;;;;62.10;55.53;;;;;;;11.12;74.16;102410.16;5111955;28;20032;-58
2023/04/09 00:16:49;;;;;;;65.10;57.92;;;;;;;11.17;74.36;102413.47;5124692;28;20030;-58
2023/04/09 00:19:15;;;;;;;63.58;56.97;;;;;;;11.14;74.70;102409.13;5132536;28;20559;-58
2023/04/09 00:21:41;;;;;;;63.08;56.47;;;;;;;11.18;74.63;102407.25;5132588;28;20050;-58
2023/04/09 00:24:09;;;;;;;63.00;56.38;;;;;;;11.11;74.91;102409.25;5114139;28;20478;-58
2023/04/09 00:26:36;;;;;;;63.45;56.75;;;;;;;11.09;75.03;102403.16;5112339;28;20027;-58
2023/04/09 00:29:02;;;;;;;62.53;55.97;;;;;;;11.14;74.66;102413.59;5113210;28;20031;-58
2023/04/09 00:31:27;;;;;;;60.65;54.05;;;;;;;11.01;75.43;102386.63;5113256;28;20432;-58
2023/04/09 00:33:52;;;;;;;58.80;52.55;;;;;;;11.03;75.39;102387.44;5132427;28;20033;-58
2023/04/09 00:36:18;;;;;;;56.42;50.42;;;;;;;11.06;75.26;102395.28;5102363;28;20073;-58
2023/04/09 00:38:44;;;;;;;56.45;50.60;;;;;;;11.08;76.08;102401.41;5111941;28;20390;-58
2023/04/09 00:41:09;;;;;;;56.40;50.58;;;;;;;10.89;76.88;102398.63;5111916;28;20459;-58
2023/04/09 00:43:35;;;;;;;52.20;46.72;;;;;;;10.97;75.86;102403.66;5111977;28;20023;-58
2023/04/09 00:46:01;;;;;;;54.70;48.97;;;;;;;11.01;76.30;102399.06;5114816;27;20093;-58
2023/04/09 00:48:29;;;;;;;50.10;44.80;;;;;;;10.90;75.98;102395.03;5100042;28;20524;-58
2023/04/09 00:50:55;;;;;;;48.95;43.80;;;;;;;10.95;76.35;102394.00;5100355;28;20031;-58
2023/04/09 00:53:20;;;;;;;49.65;44.63;;;;;;;11.06;76.20;102389.06;5095190;28;20384;-58
2023/04/09 00:55:46;;;;;;;49.60;44.60;;;;;;;10.93;76.89;102394.03;5123889;27;20098;-58
2023/04/09 00:58:12;;;;;;;48.67;43.58;;;;;;;10.94;76.57;102395.75;5103629;27;20144;-58
2023/04/09 01:00:38;;;;;;;49.45;44.17;;;;;;;10.85;77.73;102386.38;5111558;28;20351;-58
2023/04/09 01:03:05;;;;;;;47.33;42.55;;;;;;;10.88;77.04;102388.00;5077646;28;20027;-58
2023/04/09 01:05:48;;;;;;;45.60;41.10;;;;;;;10.87;77.07;102394.28;5105384;27;20019;-58
2023/04/09 01:08:30;;;;;;;45.35;40.80;;;;;;;10.87;77.36;102383.63;5103881;28;20028;-58
2023/04/09 01:10:55;;;;;;;43.97;39.45;;;;;;;10.86;77.43;102385.44;5086208;28;20068;-58
2023/04/09 01:13:38;;;;;;;45.42;40.83;;;;;;;10.76;78.02;102381.38;5114915;28;20019;-58
2023/04/09 01:16:05;;;;;;;44.03;39.63;;;;;;;10.87;78.00;102380.97;5114665;27;20020;-58
2023/04/09 01:19:07;;;;;;;44.58;40.17;;;;;;;10.93;77.58;102378.06;5115065;28;20027;-58
2023/04/09 01:21:33;;;;;;;44.40;39.92;;;;;;;10.86;77.50;102363.28;5096766;28;20028;-58
2023/04/09 01:24:25;;;;;;;44.13;39.67;;;;;;;10.86;77.82;102379.25;5114943;28;20432;-58
2023/04/09 01:27:04;;;;;;;44.28;39.88;;;;;;;10.74;78.03;102363.78;5115842;27;20030;-58
2023/04/09 01:29:33;;;;;;;44.10;39.45;;;;;;;10.73;77.98;102370.00;5114596;28;20026;-58
2023/04/09 01:32:02;;;;;;;45.40;40.60;;;;;;;10.80;78.31;102377.69;5114223;28;20462;-58
2023/04/09 01:34:29;;;;;;;41.95;37.80;;;;;;;10.85;78.76;102374.84;5116494;27;20028;-58
2023/04/09 01:37:00;;;;;;;42.72;38.60;;;;;;;10.79;78.66;102375.06;5134283;27;20117;-58
2023/04/09 01:39:26;;;;;;;44.15;39.47;;;;;;;10.81;78.56;102374.09;5135225;27;20047;-58
2023/04/09 01:41:55;;;;;;;45.08;40.35;;;;;;;10.74;78.72;102377.94;5135068;27;20127;-58
2023/04/09 01:44:23;;;;;;;43.65;39.25;;;;;;;10.71;79.22;102367.41;5116402;27;20022;-58
2023/04/09 01:46:50;;;;;;;43.80;39.20;;;;;;;10.70;79.17;102357.69;5132619;27;20131;-58
2023/04/09 01:49:17;;;;;;;44.63;40.15;;;;;;;10.76;79.41;102367.22;5134967;27;20060;-58
2023/04/09 01:51:42;;;;;;;42.85;38.63;;;;;;;10.67;79.47;102368.44;5135003;27;20019;-58
2023/04/09 01:54:08;;;;;;;45.72;41.08;;;;;;;10.64;79.55;102366.75;5132699;27;20027;-58
2023/04/09 01:56:45;;;;;;;43.75;39.28;;;;;;;10.73;80.08;102365.53;5113710;28;20028;-58
2023/04/09 01:59:11;;;;;;;44.88;40.45;;;;;;;10.60;80.21;102373.13;5114258;28;20080;-58
2023/04/09 02:01:48;;;;;;;45.10;40.28;;;;;;;10.58;80.13;102356.34;5095468;28;20028;-58
2023/04/09 02:04:35;;;;;;;45.65;40.95;;;;;;;10.62;80.40;102370.44;5097064;28;20076;-58
2023/04/09 02:07:10;;;;;;;45.72;41.03;;;;;;;10.61;80.47;102366.03;5113897;28;20024;-58
2023/04/09 02:09:38;;;;;;;47.97;42.78;;;;;;;10.46;81.38;102372.78;5095542;28;20538;-58
2023/04/09 02:12:07;;;;;;;46.95;42.13;;;;;;;10.56;81.03;102365.31;5105547;27;20024;-58
2023/04/09 02:14:34;;;;;;;46.17;41.28;;;;;;;10.59;80.74;102362.53;5114329;27;20397;-58
2023/04/09 02:17:00;;;;;;;46.30;41.50;;;;;;;10.65;80.58;102370.31;5093204;28;20099;-58
2023/04/09 02:19:44;;;;;;;46.65;41.67;;;;;;;10.62;80.76;102354.47;5093420;28;20024;-58
2023/04/09 02:22:13;;;;;;;47.08;42.22;;;;;;;10.70;80.46;102360.34;5092572;28;20028;-58
2023/04/09 02:24:41;;;;;;;48.13;43.00;;;;;;;10.64;80.51;102357.91;5081332;27;20073;-58
2023/04/09 02:27:07;;;;;;;48.80;43.63;;;;;;;10.66;80.82;102364.06;5096926;28;20024;-58
2023/04/09 02:29:33;;;;;;;46.72;41.90;;;;;;;10.65;80.47;102357.88;5093690;28;20131;-58
2023/04/09 02:31:58;;;;;;;47.10;42.20;;;;;;;10.52;80.89;102351.28;5093045;28;20078;-58
2023/04/09 02:34:24;;;;;;;48.85;43.67;;;;;;;10.59;81.64;102362.53;5116844;27;20028;-58
2023/04/09 02:36:50;;;;;;;48.22;43.08;;;;;;;10.60;80.64;102367.81;5081510;28;20115;-58
2023/04/09 02:39:15;;;;;;;49.35;44.25;;;;;;;10.53;81.79;102361.00;5101031;28;20437;-58
2023/04/09 02:41:41;;;;;;;46.70;41.72;;;;;;;10.58;81.83;102355.50;5093203;28;20023;-58
2023/04/09 02:44:06;;;;;;;47.97;42.78;;;;;;;10.63;81.29;102356.19;5111769;27;20030;-58
2023/04/09 02:46:32;;;;;;;48.33;43.28;;;;;;;10.61;81.23;102353.56;5108234;28;20039;-57
2023/04/09 02:49:00;;;;;;;47.85;42.80;;;;;;;10.54;81.59;102357.41;5093282;28;20031;-58
2023/04/09 02:51:26;;;;;;;50.20;44.72;;;;;;;10.61;80.58;102355.38;5108434;27;20471;-58
2023/04/09 02:53:52;;;;;;;49.80;44.50;;;;;;;10.58;81.33;102348.38;5106216;27;20019;-58
2023/04/09 02:56:17;;;;;;;50.70;45.20;;;;;;;10.57;80.61;102343.13;5099874;27;20031;-58
2023/04/09 02:58:42;;;;;;;52.08;46.75;;;;;;;10.55;81.51;102342.31;5093037;28;20428;-58
2023/04/09 03:01:08;;;;;;;49.58;44.20;;;;;;;10.55;81.19;102343.19;5092607;28;20028;-58
2023/04/09 03:03:37;;;;;;;48.53;43.40;;;;;;;10.42;81.99;102349.91;5094593;27;20020;-58
2023/04/09 03:06:03;;;;;;;;;;;;;;;10.69;80.42;102346.16;5093023;28;20506;-58
2023/04/09 03:08:28;;;;;;;50.40;44.90;;;;;;;10.56;81.16;102341.38;5092369;28;19915;-58
2023/04/09 03:10:54;;;;;;;51.97;45.55;;;;;;;10.54;81.78;102335.28;5095859;28;20023;-58
2023/04/09 03:13:21;;;;;;;52.28;46.38;;;;;;;10.58;81.62;102344.84;5099340;28;20462;-58
2023/04/09 03:15:51;;;;;;;50.78;45.30;;;;;;;10.63;81.40;102337.56;5097179;28;20027;-58
2023/04/09 03:18:22;;;;;;;54.72;46.47;;;;;;;10.48;81.74;102336.38;5084499;28;20115;-58
2023/04/09 03:20:49;;;;;;;52.80;46.90;;;;;;;10.50;81.54;102329.22;5107412;27;20431;-58
2023/04/09 03:23:15;;;;;;;55.50;48.60;;;;;;;10.49;81.50;102330.13;5091915;28;20024;-58
2023/04/09 03:25:40;;;;;;;54.50;48.70;;;;;;;10.39;81.52;102326.97;5127928;27;20102;-58
2023/04/09 03:28:06;;;;;;;55.50;49.13;;;;;;;10.35;82.35;102329.78;5107557;28;20069;-58
2023/04/09 03:30:31;;;;;;;57.47;49.08;;;;;;;10.40;82.05;102323.34;5091686;28;20028;-58
2023/04/09 03:32:58;;;;;;;58.00;49.65;;;;;;;10.37;81.70;102325.28;5097990;27;20028;-58
2023/04/09 03:35:23;;;;;;;55.63;46.90;;;;;;;10.39;81.84;102328.75;5094938;28;20051;-58
2023/04/09 03:37:49;;;;;;;58.72;50.42;;;;;;;10.44;81.41;102326.75;5111104;27;20055;-58
2023/04/09 03:40:14;;;;;;;58.15;50.72;;;;;;;10.38;82.18;102327.00;5106272;28;20020;-58
2023/04/09 03:42:41;;;;;;;61.67;52.38;;;;;;;10.35;81.72;102324.47;5094088;28;20490;-58
2023/04/09 03:45:07;;;;;;;60.28;52.13;;;;;;;10.25;81.97;102323.91;5094079;28;20467;-58
2023/04/09 03:47:32;;;;;;;59.88;53.13;;;;;;;10.23;82.28;102326.66;5100822;28;20100;-58
2023/04/09 03:49:58;;;;;;;59.05;52.35;;;;;;;10.11;82.44;102313.78;5101936;28;20019;-58
2023/04/09 03:52:23;;;;;;;63.20;52.85;;;;;;;10.30;82.05;102321.13;5109189;28;20038;-58
2023/04/09 03:54:49;;;;;;;62.47;54.05;;;;;;;10.27;81.80;102323.91;5108275;28;20047;-58
2023/04/09 03:57:14;;;;;;;60.35;53.78;;;;;;;10.15;81.98;102312.78;5111959;28;20103;-58
2023/04/09 03:59:40;;;;;;;59.80;51.03;;;;;;;10.22;81.80;102321.38;5112395;28;20051;-58
2023/04/09 04:02:05;;;;;;;60.65;52.75;;;;;;;10.13;82.49;102321.72;5111107;28;20028;-58
2023/04/09 04:04:31;;;;;;;59.45;52.72;;;;;;;10.12;82.47;102323.53;5110370;28;20031;-58
2023/04/09 04:06:56;;;;;;;59.22;52.65;;;;;;;10.13;82.03;102321.72;5096315;28;20050;-58
2023/04/09 04:09:21;;;;;;;57.65;50.00;;;;;;;10.02;81.60;102325.63;5109829;28;20076;-58
2023/04/09 04:11:47;;;;;;;56.50;50.28;;;;;;;10.04;81.53;102324.75;5115168;28;20102;-58
2023/04/09 04:14:12;;;;;;;57.83;48.97;;;;;;;9.99;81.21;102320.44;5129784;28;20394;-58
2023/04/09 04:16:39;;;;;;;57.13;50.40;;;;;;;9.92;81.19;102313.63;5131954;28;20474;-58
2023/04/09 04:19:05;;;;;;;54.42;48.47;;;;;;;9.98;81.48;102331.16;5115094;27;20023;-58
2023/04/09 04:21:30;;;;;;;57.67;49.72;;;;;;;10.07;81.53;102319.31;5117842;27;20015;-58
2023/04/09 04:23:55;;;;;;;57.15;49.42;;;;;;;10.07;81.16;102324.63;5115269;27;20057;-58
2023/04/09 04:26:21;;;;;;;55.83;49.72;;;;;;;9.81;81.43;102305.16;5093418;28;20023;-58
2023/04/09 04:28:46;;;;;;;54.35;48.47;;;;;;;9.84;81.13;102317.47;5086718;28;20107;-58
2023/04/09 04:31:12;;;;;;;56.83;48.55;;;;;;;9.82;81.22;102319.31;5115507;27;20024;-58
2023/04/09 04:33:39;;;;;;;57.70;48.38;;;;;;;9.87;81.39;102317.38;5097753;28;20031;-58
2023/04/09 04:36:10;;;;;;;57.10;49.55;;;;;;;9.85;81.45;102316.56;5115650;28;20114;-58
2023/04/09 04:38:36;;;;;;;56.72;49.80;;;;;;;9.76;81.68;102316.00;5115499;28;20030;-58
2023/04/09 04:41:02;;;;;;;56.63;48.17;;;;;;;9.71;81.72;102301.13;5116673;27;20028;-58
2023/04/09 04:43:27;;;;;;;54.85;48.45;;;;;;;9.73;81.38;102313.41;5115602;28;20546;-58
2023/04/09 04:45:53;;;;;;;56.38;48.40;;;;;;;9.65;81.19;102312.84;5115607;27;20359;-58
2023/04/09 04:48:19;;;;;;;57.55;50.13;;;;;;;9.52;81.92;102309.72;5097186;28;20051;-58
2023/04/09 04:50:44;;;;;;;54.95;48.95;;;;;;;9.59;81.79;102325.44;5122059;27;20019;-58
2023/04/09 04:53:10;;;;;;;53.75;47.78;;;;;;;9.51;81.96;102321.28;5136047;27;20027;-58
2023/04/09 04:55:38;;;;;;;56.97;49.58;;;;;;;9.45;82.11;102325.94;5117673;27;20362;-58
2023/04/09 04:58:04;;;;;;;54.03;47.20;;;;;;;9.44;82.24;102324.19;5093753;28;20024;-58
2023/04/09 05:00:30;;;;;;;54.45;46.70;;;;;;;9.34;81.96;102323.66;5094089;27;20064;-58
2023/04/09 05:02:56;;;;;;;55.10;46.00;;;;;;;9.19;82.17;102319.72;5115933;27;20027;-58
2023/04/09 05:05:21;;;;;;;55.10;46.90;;;;;;;9.16;82.46;102327.81;5096723;28;20373;-58
2023/04/09 05:07:47;;;;;;;54.33;45.30;;;;;;;9.16;81.86;102326.94;5114958;28;20026;-58
2023/04/09 05:10:12;;;;;;;54.03;45.05;;;;;;;9.15;82.14;102317.22;5116569;27;20424;-58
2023/04/09 05:12:38;;;;;;;52.25;44.70;;;;;;;9.10;81.92;102317.38;5115232;28;20057;-58
2023/04/09 05:15:03;;;;;;;51.53;44.13;;;;;;;9.08;82.11;102313.91;5114865;28;20055;-58
2023/04/09 05:17:29;;;;;;;52.25;43.95;;;;;;;9.05;82.12;102314.00;5114350;28;20065;-58
2023/04/09 05:19:56;;;;;;;52.10;44.35;;;;;;;9.05;81.68;102317.53;5111933;27;20024;-58
2023/04/09 05:22:22;;;;;;;54.22;45.17;;;;;;;9.05;82.22;102314.00;5114960;27;20479;-58
2023/04/09 05:24:47;;;;;;;52.72;44.40;;;;;;;8.98;81.52;102317.78;5114840;28;20106;-58
2023/04/09 05:27:13;;;;;;;52.28;44.67;;;;;;;8.96;81.89;102319.63;5114675;28;20497;-58
2023/04/09 05:29:38;;;;;;;52.00;45.00;;;;;;;8.83;82.24;102325.34;5100275;27;20401;-58
2023/04/09 05:32:04;;;;;;;54.80;45.38;;;;;;;8.71;82.21;102312.47;5133974;27;20090;-58
2023/04/09 05:34:29;;;;;;;52.75;45.10;;;;;;;8.68;82.81;102317.88;5135159;27;20023;-58
2023/04/09 05:36:57;;;;;;;53.78;46.17;;;;;;;8.65;82.45;102315.31;5134100;27;20452;-58
2023/04/09 05:39:23;;;;;;;58.53;46.03;;;;;;;8.81;82.40;102324.50;5135031;27;20030;-58
2023/04/09 05:41:48;;;;;;;53.55;44.80;;;;;;;8.74;82.45;102325.63;5123432;27;20028;-58
2023/04/09 05:44:16;;;;;;;53.63;46.72;;;;;;;8.80;82.32;102311.31;5109349;28;20070;-58
2023/04/09 05:46:42;;;;;;;52.92;46.03;;;;;;;8.72;82.61;102314.19;5113871;28;20356;-58
2023/04/09 05:49:07;;;;;;;51.63;43.75;;;;;;;8.74;82.70;102324.75;5114521;28;20056;-58
2023/04/09 05:51:33;;;;;;;53.03;45.22;;;;;;;8.77;82.48;102314.91;5096043;28;20145;-58
2023/04/09 05:54:01;;;;;;;55.03;47.83;;;;;;;8.73;82.27;102312.41;5114937;27;20019;-58
2023/04/09 05:56:26;;;;;;;51.42;43.67;;;;;;;8.79;82.23;102321.03;5095706;28;20032;-58
2023/04/09 05:58:52;;;;;;;57.47;44.75;;;;;;;8.90;82.01;102327.78;5111328;28;20028;-58
2023/04/09 06:01:18;;;;;;;52.30;45.40;;;;;;;8.87;82.04;102320.78;5129480;27;20023;-58
2023/04/09 06:03:44;;;;;;;52.88;45.03;;;;;;;8.80;82.25;102335.19;5134342;27;20119;-58
2023/04/09 06:06:09;;;;;;;52.40;45.25;;;;;;;8.90;82.05;102323.34;5134688;27;20019;-58
2023/04/09 06:08:35;;;;;;;53.38;45.67;;;;;;;8.78;82.27;102343.16;5129999;27;20403;-58
2023/04/09 06:11:00;;;;;;;52.25;45.53;;;;;;;8.70;81.90;102323.97;5110652;27;20031;-58
2023/04/09 06:13:28;;;;;;;51.00;44.92;;;;;;;8.81;82.11;102340.41;5093525;28;20516;-58
2023/04/09 06:15:53;;;;;;;55.95;47.03;;;;;;;8.77;82.39;102335.28;5113151;28;20028;-58
2023/04/09 06:18:19;;;;;;;54.60;46.30;;;;;;;8.80;81.84;102338.69;5111338;28;20068;-58
2023/04/09 06:20:44;;;;;;;53.42;46.00;;;;;;;8.68;82.51;102332.88;5095025;28;20027;-58
2023/04/09 06:23:10;;;;;;;53.33;45.83;;;;;;;8.82;82.14;102342.19;5093990;28;20028;-58
2023/04/09 06:25:35;;;;;;;50.78;45.28;;;;;;;8.91;81.95;102338.34;5095030;28;20484;-58
2023/04/09 06:28:01;;;;;;;52.97;46.50;;;;;;;9.02;81.58;102333.56;5128761;27;20028;-58
2023/04/09 06:30:28;;;;;;;52.08;45.20;;;;;;;8.94;81.37;102327.66;5117865;27;20022;-58
2023/04/09 06:32:53;;;;;;;51.92;45.13;;;;;;;8.98;80.86;102341.69;5110256;28;20023;-58
2023/04/09 06:35:18;;;;;;;49.72;43.92;;;;;;;8.94;80.84;102346.22;5111316;28;20033;-58
2023/04/09 06:37:44;;;;;;;52.28;45.15;;;;;;;9.03;80.82;102337.06;5095266;28;20055;-58
2023/04/09 06:40:10;;;;;;;53.78;47.30;;;;;;;9.07;81.28;102346.69;5123166;27;20027;-58
2023/04/09 06:42:36;;;;;;;52.22;45.40;;;;;;;9.10;80.51;102346.59;5115274;27;20499;-58
2023/04/09 06:45:07;;;;;;;54.10;45.25;;;;;;;9.18;79.93;102357.81;5133122;27;20042;-58
2023/04/09 06:47:32;;;;;;;54.83;45.83;;;;;;;9.19;80.03;102356.03;5132960;27;20197;-58
2023/04/09 06:49:58;;;;;;;49.38;43.97;;;;;;;9.32;79.98;102352.03;5099842;28;20118;-58
2023/04/09 06:52:23;;;;;;;55.40;46.90;;;;;;;9.45;80.12;102356.03;5113139;28;20027;-58
2023/04/09 06:54:51;;;;;;;51.30;45.75;;;;;;;9.59;79.46;102359.97;5113041;28;20054;-58
2023/04/09 06:57:17;;;;;;;51.00;44.13;;;;;;;9.71;79.13;102364.91;5112889;28;20436;-58
2023/04/09 06:59:42;;;;;;;51.58;44.72;;;;;;;9.62;77.94;102363.41;5114389;27;20028;-58
2023/04/09 07:02:08;;;;;;;51.03;44.33;;;;;;;9.78;78.26;102371.72;5112205;28;20027;-58
2023/04/09 07:04:33;;;;;;;49.35;43.58;;;;;;;9.74;77.89;102365.66;5113053;28;20065;-58
2023/04/09 07:06:59;;;;;;;49.78;42.67;;;;;;;9.81;77.49;102353.00;5112735;28;20024;-58
2023/04/09 07:09:24;;;;;;;49.40;44.00;;;;;;;9.81;77.45;102349.47;5125133;27;20464;-58
2023/04/09 07:11:50;;;;;;;51.67;44.13;;;;;;;9.91;76.81;102364.16;5114284;27;20019;-58
2023/04/09 07:14:15;;;;;;;53.75;46.10;;;;;;;9.95;76.63;102356.03;5112831;28;20051;-58
2023/04/09 07:16:41;;;;;;;52.60;44.92;;;;;;;10.07;76.95;102348.53;5094029;28;20058;-58
2023/04/09 07:19:07;;;;;;;55.60;44.70;;;;;;;10.10;76.43;102362.59;5112108;27;20023;-58
2023/04/09 07:21:32;;;;;;;50.78;44.22;;;;;;;10.05;76.47;102355.69;5108461;28;20032;-58
2023/04/09 07:23:57;;;;;;;49.38;43.38;;;;;;;10.23;76.09;102368.31;5097119;28;20469;-58
2023/04/09 07:26:23;;;;;;;53.20;46.05;;;;;;;10.30;75.49;102374.31;5073631;28;20030;-58
2023/04/09 07:28:48;;;;;;;51.70;45.17;;;;;;;10.40;75.55;102368.56;5078849;28;20016;-58
2023/04/09 07:31:14;;;;;;;52.05;45.70;;;;;;;10.54;75.62;102376.03;5073146;28;20064;-58
2023/04/09 07:33:39;;;;;;;52.25;44.72;;;;;;;10.49;75.42;102359.38;5080040;28;20059;-58
2023/04/09 07:36:05;;;;;;;51.53;45.70;;;;;;;10.66;75.11;102369.38;5099328;28;20449;-58
2023/04/09 07:38:31;;;;;;;52.47;46.97;;;;;;;10.59;75.10;102370.53;5103835;28;20101;-59
2023/04/09 07:40:57;;;;;;;49.25;43.88;;;;;;;10.58;74.92;102369.66;5111991;28;20114;-58
2023/04/09 07:43:22;;;;;;;50.83;44.53;;;;;;;10.54;75.29;102368.06;5111945;28;20073;-58
2023/04/09 07:45:50;;;;;;;52.22;44.20;;;;;;;10.80;74.81;102374.16;5111546;28;20031;-58
2023/04/09 07:48:15;;;;;;;49.78;44.10;;;;;;;10.83;73.96;102369.59;5092159;28;20040;-58
2023/04/09 07:50:41;;;;;;;50.97;45.40;;;;;;;10.74;73.93;102358.44;5107042;28;20558;-58
2023/04/09 07:53:06;;;;;;;51.08;45.22;;;;;;;10.84;73.90;102367.78;5110427;28;20045;-58
2023/04/09 07:55:31;;;;;;;51.97;45.33;;;;;;;11.02;73.75;102367.03;5086088;28;20121;-58
2023/04/09 07:57:57;;;;;;;55.50;47.38;;;;;;;10.85;73.06;102373.06;5093759;28;20390;-58
2023/04/09 08:00:23;;;;;;;50.53;44.58;;;;;;;11.18;73.39;102350.44;5106432;28;20032;-58
2023/04/09 08:02:48;;;;;;;50.28;44.08;;;;;;;11.34;72.68;102356.88;5073685;28;20016;-58
2023/04/09 08:05:16;;;;;;;50.00;44.55;;;;;;;11.48;71.52;102359.81;5096431;28;20024;-59
2023/04/09 08:07:41;;;;;;;53.40;45.92;;;;;;;11.54;72.05;102362.22;5112442;28;20055;-58
2023/04/09 08:10:07;;;;;;;50.85;45.45;;;;;;;11.73;71.72;102364.94;5111803;28;20091;-58
2023/04/09 08:12:32;;;;;;;50.97;45.58;;;;;;;11.68;70.37;102350.09;5093622;28;20024;-58
2023/04/09 08:14:58;;;;;;;50.00;44.72;;;;;;;11.86;70.05;102365.31;5111832;28;20020;-58
2023/04/09 08:17:23;;;;;;;51.05;45.58;;;;;;;11.90;69.90;102355.38;5111562;28;20442;-58
2023/04/09 08:19:49;;;;;;;57.83;46.83;;;;;;;12.10;69.85;102358.03;5111584;28;20035;-58
2023/04/09 08:22:14;;;;;;;52.20;46.55;;;;;;;12.17;68.56;102356.78;5111714;28;20506;-58
2023/04/09 08:24:42;;;;;;;51.50;46.10;;;;;;;11.89;68.71;102370.50;5093643;28;20096;-58
2023/04/09 08:27:07;;;;;;;50.65;45.15;;;;;;;12.18;69.39;102360.34;5079279;28;20417;-58
2023/04/09 08:29:33;;;;;;;50.28;44.80;;;;;;;12.17;69.11;102367.47;5100538;28;20106;-58
2023/04/09 08:31:59;;;;;;;50.60;45.10;;;;;;;12.22;69.50;102365.47;5093114;28;20385;-58
2023/04/09 08:34:24;;;;;;;50.47;45.17;;;;;;;12.20;70.22;102362.00;5111768;28;20031;-59
2023/04/09 08:36:50;;;;;;;53.53;47.03;;;;;;;12.19;69.83;102357.59;5111529;28;20026;-58
2023/04/09 08:39:18;;;;;;;50.70;45.45;;;;;;;12.23;69.17;102359.19;5127657;28;20027;-59
2023/04/09 08:41:45;;;;;;;53.03;47.40;;;;;;;12.42;68.30;102353.88;5132117;28;20015;-58
2023/04/09 08:44:10;;;;;;;51.72;46.25;;;;;;;12.79;68.32;102353.94;5115399;28;20031;-58
2023/04/09 08:46:36;;;;;;;50.38;44.95;;;;;;;12.95;67.11;102357.59;5110879;28;20362;-58
2023/04/09 08:49:02;;;;;;;49.95;44.47;;;;;;;12.96;66.67;102351.31;5110410;28;20439;-58
2023/04/09 08:51:27;;;;;;;49.05;43.67;;;;;;;13.04;66.53;102356.28;5111295;28;20020;-58
2023/04/09 08:54:02;;;;;;;49.92;44.53;;;;;;;13.21;66.69;102352.75;5111594;28;20034;-58
2023/04/09 08:56:28;;;;;;;50.22;44.85;;;;;;;13.32;65.97;102351.31;5111587;28;20036;-58
2023/04/09 08:58:56;;;;;;;49.58;44.30;;;;;;;13.47;65.21;102360.38;5125285;28;20110;-58
2023/04/09 09:01:23;;;;;;;49.35;44.00;;;;;;;13.57;65.20;102352.75;5131521;28;20023;-59
2023/04/09 09:04:04;;;;;;;49.28;43.90;;;;;;;13.79;65.23;102350.66;5075147;28;20035;-59
2023/04/09 09:06:40;;;;;;;50.08;44.65;;;;;;;13.66;63.68;102362.97;5113142;27;20088;-58
2023/04/09 09:09:06;;;;;;;49.35;43.95;;;;;;;13.59;65.07;102354.41;5116065;27;20100;-58
2023/04/09 09:11:45;;;;;;;48.92;43.72;;;;;;;13.38;64.70;102347.47;5114441;28;20024;-59
2023/04/09 09:14:12;;;;;;;50.55;45.15;;;;;;;13.27;65.21;102342.69;5115128;28;20031;-59
2023/04/09 09:16:43;;;;;;;48.85;43.53;;;;;;;13.45;65.17;102350.72;5096307;28;20423;-59
2023/04/09 09:19:29;;;;;;;48.88;43.53;;;;;;;13.62;65.38;102353.38;5096841;28;20111;-59
2023/04/09 09:21:59;;;;;;;47.38;42.28;;;;;;;13.47;64.10;102344.34;5133390;27;20027;-59
2023/04/09 09:24:25;;;;;;;46.92;41.88;;;;;;;13.56;64.57;102351.00;5096368;28;20110;-59
2023/04/09 09:26:51;;;;;;;47.08;42.13;;;;;;;13.58;63.68;102352.66;5087218;28;20034;-58
2023/04/09 09:29:16;;;;;;;49.30;44.03;;;;;;;13.81;63.74;102345.25;5113667;28;20088;-58
2023/04/09 09:31:48;;;;;;;48.13;42.92;;;;;;;14.14;63.40;102350.59;5093890;28;20024;-58
2023/04/09 09:34:14;;;;;;;47.35;42.35;;;;;;;14.32;61.67;102352.31;5095719;28;20035;-58
2023/04/09 09:36:40;;;;;;;48.22;42.85;;;;;;;14.18;61.70;102346.84;5095976;27;20027;-58
2023/04/09 09:39:09;;;;;;;46.67;41.60;;;;;;;14.19;61.48;102337.84;5119212;27;20042;-58
2023/04/09 09:41:34;;;;;;;46.22;41.38;;;;;;;14.30;61.36;102343.47;5097178;28;20118;-58
2023/04/09 09:44:00;;;;;;;47.38;42.38;;;;;;;14.42;60.91;102341.94;5096090;28;20096;-58
2023/04/09 09:46:27;;;;;;;47.60;42.50;;;;;;;14.86;60.53;102329.72;5096746;27;20015;-57
2023/04/09 09:48:52;;;;;;;47.25;42.20;;;;;;;14.99;59.67;102328.91;5082050;28;20035;-58
2023/04/09 09:51:21;;;;;;;43.50;38.03;;;;;;;15.12;58.76;102330.91;5094130;28;20023;-58
2023/04/09 09:53:50;;;;;;;39.70;35.17;;;;;;;15.33;57.12;102328.75;5094001;28;20042;-58
2023/04/09 09:56:18;;;;;;;;;;;;;;;15.78;57.75;102325.13;5109661;28;20028;-58
2023/04/09 09:58:51;;;;;;;42.65;38.05;;;;;;;15.54;56.54;102315.88;5115349;27;20016;-58
2023/04/09 10:01:18;;;;;;;35.92;32.35;;;;;;;15.39;54.57;102320.34;5111661;28;20035;-58
2023/04/09 10:03:45;;;;;;;36.08;32.17;;;;;;;15.15;55.23;102320.00;5114075;28;20462;-58
2023/04/09 10:06:12;;;;;;;38.72;34.55;;;;;;;14.96;56.75;102320.19;5118337;27;20080;-58
2023/04/09 10:08:43;;;;;;;37.33;33.45;;;;;;;15.14;56.62;102311.06;5099359;27;20034;-58
2023/04/09 10:11:09;;;;;;;40.15;36.15;;;;;;;15.45;56.43;102306.56;5121457;27;20023;-58
2023/04/09 10:13:39;;;;;;;37.65;33.70;;;;;;;15.77;55.49;102309.16;5093829;28;20424;-58
2023/04/09 10:16:06;;;;;;;31.73;28.52;;;;;;;15.62;53.41;102309.09;5113850;28;20102;-58
2023/04/09 10:18:34;;;;;;;27.08;24.38;;;;;;;15.24;52.78;102297.16;5096005;28;20020;-58
2023/04/09 10:21:06;;;;;;;26.45;23.60;;;;;;;15.15;53.05;102311.94;5095429;28;20055;-58
2023/04/09 10:23:40;;;;;;;27.33;24.50;;;;;;;15.47;53.32;102301.09;5113692;28;20046;-58
2023/04/09 10:26:05;;;;;;;26.45;23.85;;;;;;;15.64;53.01;102290.22;5114726;27;20038;-58
2023/04/09 10:28:31;;;;;;;24.33;22.00;;;;;;;15.71;51.15;102306.84;5092744;28;20024;-58
2023/04/09 10:30:57;;;;;;;28.67;25.13;;;;;;;15.53;51.18;102295.38;5091140;28;20031;-58
2023/04/09 10:33:27;;;;;;;28.73;25.80;;;;;;;15.63;51.99;102286.66;5093360;28;20026;-58
2023/04/09 10:35:54;;;;;;;26.05;23.35;;;;;;;15.59;51.64;102286.97;5095012;27;20026;-58
2023/04/09 10:38:34;;;;;;;27.05;24.33;;;;;;;15.49;51.89;102288.47;5118422;27;20485;-58
2023/04/09 10:41:06;;;;;;;24.75;22.40;;;;;;;15.75;51.02;102282.41;5109563;28;20031;-58
2023/04/09 10:43:35;;;;;;;24.80;22.40;;;;;;;16.06;50.93;102276.00;5108834;28;20035;-58
2023/04/09 10:46:00;;;;;;;27.92;24.70;;;;;;;16.33;50.30;102265.31;5094274;28;20023;-58
2023/04/09 10:48:26;;;;;;;26.85;24.30;;;;;;;16.47;49.39;102275.16;5090668;28;20044;-58
2023/04/09 10:50:51;;;;;;;24.17;21.67;;;;;;;16.80;49.20;102266.72;5112984;28;20026;-58
2023/04/09 10:53:24;;;;;;;22.35;19.85;;;;;;;16.31;48.10;102263.66;5112845;28;20058;-58
2023/04/09 10:55:55;;;;;;;24.20;21.80;;;;;;;15.73;48.14;102275.41;5095576;27;20024;-58
2023/04/09 10:58:20;;;;;;;26.52;23.83;;;;;;;15.41;50.08;102275.50;5114908;27;20023;-58
2023/04/09 11:00:50;;;;;;;25.88;23.27;;;;;;;15.29;50.72;102273.59;5132770;27;20030;-58
2023/04/09 11:03:32;;;;;;;25.05;22.40;;;;;;;15.19;51.00;102267.91;5118603;27;20035;-58
2023/04/09 11:05:59;;;;;;;25.80;23.05;;;;;;;15.27;50.79;102264.78;5094476;28;20020;-59
2023/04/09 11:08:28;;;;;;;28.63;25.70;;;;;;;15.53;50.60;102256.03;5094437;28;20032;-58
2023/04/09 11:10:57;;;;;;;28.45;25.63;;;;;;;16.11;50.81;102252.38;5110388;28;20026;-59
2023/04/09 11:13:23;;;;;;;29.65;26.77;;;;;;;16.46;49.29;102256.44;5112095;28;20035;-58